Nearby METAR Reports

 

KBFI - Seattle/Boeing, Washington, USA
Distance from station: S 10mi, 16km
Updated: Wed, 17-Jan-2018 2:53pm PST
Light rain, Overcast
Light rain, Overcast
 Wind from WNW
Wind: WNW 7 mph , 11 km/h
Temperature: 54°F , 12°C
Dew Point: 46°F , 8°C
Humidity: 77%
Barometer: 29.74 inHg , 1007.1 hPa
Summary: Light rain
Clouds: Overcast
Visibility: 10 miles , 16 km
Cloud details: Overcast 7000 ft
2018/01/17 22:53 KBFI 172253Z 30006KT 10SM -RA OVC070 12/08 A2974 RMK AO2 RAB16 SLP072 P0002 T01220078
KRNT - Renton, Washington, USA
Distance from station: SSE 14mi, 23km
Updated: Wed, 17-Jan-2018 2:53pm PST
Light rain, Overcast
Light rain, Overcast
 Wind from S
Wind: S 3 mph , 6 km/h
Temperature: 55°F , 13°C
Dew Point: 43°F , 6°C
Humidity: 63%
Barometer: 29.73 inHg , 1006.8 hPa
Summary: Light rain
Clouds: Overcast
Visibility: 10 miles , 16 km
Cloud details: Overcast 7500 ft
2018/01/17 22:53 KRNT 172253Z 17003KT 10SM -RA OVC075 13/06 A2973 RMK AO2 RAB23 SLP072 P0000 T01330056
 
KPAE - Everett, Washington, USA
Distance from station: N 15mi, 25km
Updated: Wed, 17-Jan-2018 2:53pm PST
Light rain, Overcast
Light rain, Overcast
 Wind from ESE
Wind: ESE 12 mph , 19 km/h, Gust: 26 mph , 43 km/h
Temperature: 54°F , 12°C
Dew Point: 43°F , 6°C
Humidity: 67%
Barometer: 29.75 inHg , 1007.5 hPa
Summary: Light rain
Clouds: Overcast
Visibility: 5 miles , 8 km
Cloud details: Overcast 6000 ft
2018/01/17 22:53 KPAE 172253Z 12010G23KT 5SM -RA OVC060 12/06 A2975 RMK AO2 RAB11 SLP077 P0003 T01170056
KSEA - Seattle/Metro, Washington, USA
Distance from station: S 17mi, 27km
Updated: Wed, 17-Jan-2018 2:53pm PST
Light rain, Overcast
Light rain, Overcast
 Wind from W
Wind: W 12 mph , 19 km/h
Temperature: 48°F , 9°C
Wind Chill: 43°F , 6°C
Dew Point: 45°F , 7°C
Humidity: 87%
Barometer: 29.75 inHg , 1007.5 hPa
Summary: Light rain
Clouds: Overcast
Visibility: 10 miles , 16 km
Cloud details: Overcast 7000 ft
2018/01/17 22:53 KSEA 172253Z 27010KT 10SM -RA OVC070 09/07 A2975 RMK AO2 RAB24 SLP080 P0000 T00940067
 
KPWT - Bremerton Ntnl, Washington, USA
Distance from station: SW 24mi, 39km
Updated: Wed, 17-Jan-2018 2:56pm PST
Light rain, Overcast
Light rain, Overcast
 Wind from calm
Wind: Calm
Temperature: 46°F , 8°C
Dew Point: 46°F , 8°C
Humidity: 100%
Barometer: 29.75 inHg , 1007.5 hPa
Summary: Light rain
Clouds: Overcast
Visibility: 10 miles , 16 km
Cloud details: Overcast 6000 ft
2018/01/17 22:56 KPWT 172256Z AUTO 00000KT 10SM -RA OVC060 08/08 A2975 RMK AO2 RAB06 SLP093 P0006 T00830083
KTIW - Tacoma, Washington, USA
Distance from station: SSW 32mi, 52km
Updated: Wed, 17-Jan-2018 2:53pm PST
Light rain, Overcast
Light rain, Overcast
 Wind from varies
Wind: varies 5 mph , 7 km/h
Temperature: 46°F , 8°C
Wind Chill: 44°F , 7°C
Dew Point: 45°F , 7°C
Humidity: 93%
Barometer: 29.76 inHg , 1007.8 hPa
Summary: Light rain
Clouds: Overcast
Visibility: 8 miles , 13 km
Cloud details: Mostly cloudy 6000 ft
Overcast 7500 ft
2018/01/17 22:53 KTIW 172253Z VRB04KT 8SM -RA BKN060 OVC075 08/07 A2976 RMK AO2 RAB15 SLP078 P0001 T00780072
 
KAWO - Arlington Muni, Washington, USA
Distance from station: N 33mi, 54km
Updated: Wed, 17-Jan-2018 2:56pm PST
Light rain, Overcast
Light rain, Overcast
 Wind from SW
Wind: SW 8 mph , 13 km/h
Temperature: 55°F , 13°C
Dew Point: 41°F , 5°C
Humidity: 59%
Barometer: 29.75 inHg , 1007.5 hPa
Summary: Light rain
Clouds: Overcast
Visibility: 10 miles , 16 km
Cloud details: Overcast 6500 ft
2018/01/17 22:56 KAWO 172256Z AUTO 22007KT 10SM -RA OVC065 13/05 A2975 RMK AO2 RAB16 SLP078 P0000 T01330050
KTCM - Tacoma/Mc Chord, Washington, USA
Distance from station: S 41mi, 65km
Updated: Wed, 17-Jan-2018 2:58pm PST
Light rain, Overcast
Light rain, Overcast
 Wind from calm
Wind: Calm
Temperature: 48°F , 9°C
Dew Point: 48°F , 9°C
Humidity: 100%
Barometer: 29.75 inHg , 1007.5 hPa
Summary: Light rain
Clouds: Overcast
Visibility: 8 miles , 13 km
Cloud details: Mostly cloudy 6000 ft
Overcast 7000 ft
2018/01/17 22:58 KTCM 172258Z AUTO 00000KT 8SM -RA BKN060 OVC070 09/09 A2975 RMK AO2 RAB08E36RAB40 SLP079 P0002 T00880088 $
 
KPLU - Puyallup/Thun, Washington, USA
Distance from station: S 41mi, 66km
Updated: Wed, 17-Jan-2018 3:15pm PST
Light drizzle, Overcast
Light drizzle, Overcast
 Wind from varies
Wind: varies 3 mph , 6 km/h
Temperature: 50°F , 10°C
Dew Point: 48°F , 9°C
Humidity: 94%
Barometer: 29.75 inHg , 1007.5 hPa
Summary: Light Drizzle
Clouds: Overcast
Visibility: 8 miles , 13 km
Cloud details: Few Clouds 3800 ft
Partly cloudy 4300 ft
Overcast 7000 ft
2018/01/17 23:15 KPLU 172315Z AUTO VRB03KT 8SM -DZ FEW038 SCT043 OVC070 10/09 A2975 RMK AO2
KGRF - Fort Lewis/Gray, Washington, USA
Distance from station: SSW 45mi, 72km
Updated: Wed, 17-Jan-2018 2:58pm PST
Rain, Mostly cloudy
Rain, Mostly cloudy
 Wind from calm
Wind: Calm
Temperature: 48°F , 9°C
Dew Point: 48°F , 9°C
Humidity: 100%
Barometer: 29.74 inHg , 1007.1 hPa
Summary: Rain
Clouds: Mostly cloudy
Visibility: 6 miles , 10 km
Cloud details: Mostly cloudy 4400 ft
2018/01/17 22:58 KGRF 172258Z AUTO 00000KT 6SM RA BKN044 09/09 A2974 RMK AO2 RAB03 SLP076 P0002 T00860086 $
 
KNUW - Whidbey Is. Nas, Washington, USA
Distance from station: NNW 48mi, 77km
Updated: Wed, 17-Jan-2018 2:56pm PST
Overcast
Overcast
 Wind from SSE
Wind: SSE 15 mph , 24 km/h
Temperature: 55°F , 13°C
Dew Point: 43°F , 6°C
Humidity: 63%
Barometer: 29.75 inHg , 1007.5 hPa
Clouds: Overcast
Visibility: 10 miles , 16 km
Cloud details: Partly cloudy 5500 ft
Mostly cloudy 8500 ft
Mostly cloudy 15000 ft
Overcast 22000 ft
2018/01/17 22:56 KNUW 172256Z 16013KT 10SM SCT055 BKN085 BKN150 OVC220 13/06 A2975 RMK AO2 RAB15E25 SLP073 P0000 T01280061 $
KSHN - Shelton, Washington, USA
Distance from station: SW 50mi, 80km
Updated: Wed, 17-Jan-2018 3:10pm PST
Rain, Mist, Overcast
Rain, Mist, Overcast
 Wind from E
Wind: E 3 mph , 6 km/h
Temperature: 48°F , 9°C
Dew Point: 46°F , 8°C
Humidity: 94%
Barometer: 29.73 inHg , 1006.8 hPa
Summary: Rain, Mist
Clouds: Overcast
Visibility: 1 1/2 miles , 2.4 km
Cloud details: Overcast 5000 ft
2018/01/17 23:10 KSHN 172310Z AUTO 09003KT 1 1/2SM RA BR OVC050 09/08 A2973 RMK AO2 P0004 T00890083